DAL2299 KLAX-KSEA
Flight info
| Callsign | DAL2299 |
|---|---|
| Flight time | N/A |
| Altitude | 36000 |
| Route | LADYJ4 CSTRO SHIMR LKV HAWKZ8 |
| Aircraft | B739/M-SDE2E3FGHIRWXY/LB1 |
Departure
| Time | 2026-04-26 13:41 |
|---|---|
| Airport | Los Angeles International Airport (KLAX) |
Arrival
| Time | N/A |
|---|---|
| Airport | Seattle–Tacoma International Airport (KSEA) |
| Time | Latitude | Longitude | Altitude | Speed | Heading |
|---|---|---|---|---|---|
| 2026-04-26 13:01 | 33.94689 | -118.40824 | 92 ft | 0 kts | 137° |
| 2026-04-26 13:27 | 33.94700 | -118.40836 | 92 ft | 4 kts | 137° |
| 2026-04-26 13:27 | 33.94718 | -118.40858 | 92 ft | 4 kts | 123° |
| 2026-04-26 13:28 | 33.94727 | -118.40886 | 93 ft | 4 kts | 77° |
| 2026-04-26 13:28 | 33.94715 | -118.40908 | 95 ft | 4 kts | 15° |
| 2026-04-26 13:28 | 33.94695 | -118.40909 | 91 ft | 4 kts | 353° |
| 2026-04-26 13:28 | 33.94681 | -118.40907 | 91 ft | 0 kts | 353° |
| 2026-04-26 13:34 | 33.94699 | -118.40909 | 91 ft | 6 kts | 353° |
| 2026-04-26 13:34 | 33.94730 | -118.40904 | 91 ft | 7 kts | 24° |
| 2026-04-26 13:35 | 33.94789 | -118.40882 | 96 ft | 7 kts | 359° |
| 2026-04-26 13:35 | 33.94830 | -118.40858 | 93 ft | 7 kts | 55° |
| 2026-04-26 13:35 | 33.94842 | -118.40796 | 93 ft | 9 kts | 83° |
| 2026-04-26 13:35 | 33.94851 | -118.40711 | 93 ft | 11 kts | 83° |
| 2026-04-26 13:36 | 33.94861 | -118.40625 | 93 ft | 10 kts | 83° |
| 2026-04-26 13:36 | 33.94869 | -118.40541 | 93 ft | 10 kts | 83° |
| 2026-04-26 13:36 | 33.94877 | -118.40459 | 95 ft | 10 kts | 83° |
| 2026-04-26 13:36 | 33.94885 | -118.40380 | 93 ft | 9 kts | 83° |
| 2026-04-26 13:37 | 33.94894 | -118.40303 | 93 ft | 9 kts | 83° |
| 2026-04-26 13:37 | 33.94902 | -118.40227 | 95 ft | 9 kts | 83° |
| 2026-04-26 13:37 | 33.94909 | -118.40152 | 93 ft | 10 kts | 83° |
| 2026-04-26 13:37 | 33.94918 | -118.40055 | 93 ft | 13 kts | 83° |
| 2026-04-26 13:38 | 33.94931 | -118.39952 | 92 ft | 12 kts | 69° |
| 2026-04-26 13:38 | 33.95003 | -118.39911 | 92 ft | 12 kts | 356° |
| 2026-04-26 13:38 | 33.95041 | -118.39948 | 92 ft | 7 kts | 273° |
| 2026-04-26 13:38 | 33.95037 | -118.39999 | 92 ft | 1 kts | 263° |
| 2026-04-26 13:39 | 33.95037 | -118.40001 | 92 ft | 0 kts | 263° |
| 2026-04-26 13:40 | 33.95027 | -118.40105 | 95 ft | 41 kts | 263° |
| 2026-04-26 13:40 | 33.94990 | -118.40458 | 98 ft | 87 kts | 263° |
| 2026-04-26 13:40 | 33.94891 | -118.41430 | 96 ft | 144 kts | 263° |
| 2026-04-26 13:40 | 33.94752 | -118.42760 | 426 ft | 161 kts | 264° |
| 2026-04-26 13:41 | 33.94592 | -118.44570 | 1299 ft | 172 kts | 264° |
| 2026-04-26 13:41 | 33.94511 | -118.45563 | 1533 ft | 189 kts | 264° |
| 2026-04-26 13:41 | 33.94355 | -118.47241 | 1827 ft | 213 kts | 264° |
| 2026-04-26 13:41 | 33.94259 | -118.49137 | 2134 ft | 238 kts | 268° |
| 2026-04-26 13:42 | 33.94206 | -118.51161 | 2958 ft | 242 kts | 268° |
| 2026-04-26 13:42 | 33.94069 | -118.53180 | 3939 ft | 242 kts | 265° |
| 2026-04-26 13:42 | 33.93902 | -118.55207 | 4851 ft | 244 kts | 265° |
| 2026-04-26 13:42 | 33.93735 | -118.57256 | 5736 ft | 247 kts | 265° |
| 2026-04-26 13:43 | 33.93569 | -118.59321 | 6620 ft | 249 kts | 265° |
| 2026-04-26 13:43 | 33.93502 | -118.61416 | 7407 ft | 253 kts | 278° |
| 2026-04-26 13:43 | 33.94160 | -118.63414 | 7880 ft | 258 kts | 303° |
| 2026-04-26 13:43 | 33.95425 | -118.64931 | 7974 ft | 265 kts | 322° |
| 2026-04-26 13:44 | 33.96993 | -118.66110 | 7997 ft | 266 kts | 324° |
| 2026-04-26 13:44 | 33.98591 | -118.67229 | 7989 ft | 266 kts | 332° |
| 2026-04-26 13:44 | 34.00407 | -118.67691 | 8010 ft | 270 kts | 353° |
| 2026-04-26 13:44 | 34.02292 | -118.67629 | 8006 ft | 272 kts | 359° |
| 2026-04-26 13:45 | 34.04194 | -118.67476 | 8299 ft | 277 kts | 359° |
| 2026-04-26 13:45 | 34.06134 | -118.67328 | 9083 ft | 280 kts | 359° |
| 2026-04-26 13:45 | 34.08085 | -118.67167 | 9976 ft | 283 kts | 2° |
| 2026-04-26 13:45 | 34.10070 | -118.66773 | 10512 ft | 299 kts | 6° |
| 2026-04-26 13:46 | 34.12222 | -118.66234 | 10693 ft | 325 kts | 7° |
| 2026-04-26 13:46 | 34.14481 | -118.65653 | 10849 ft | 348 kts | 8° |
| 2026-04-26 13:46 | 34.16926 | -118.65040 | 11036 ft | 369 kts | 7° |
| 2026-04-26 13:46 | 34.19490 | -118.64419 | 11436 ft | 381 kts | 7° |
| 2026-04-26 13:47 | 34.22117 | -118.63792 | 12038 ft | 387 kts | 7° |
| 2026-04-26 13:47 | 34.24777 | -118.63325 | 12706 ft | 386 kts | 356° |
| 2026-04-26 13:47 | 34.27412 | -118.63792 | 13353 ft | 383 kts | 343° |
| 2026-04-26 13:47 | 34.30026 | -118.64472 | 13996 ft | 387 kts | 344° |
| 2026-04-26 13:48 | 34.32679 | -118.65121 | 14555 ft | 391 kts | 345° |
| 2026-04-26 13:48 | 34.35361 | -118.65751 | 15097 ft | 395 kts | 345° |
| 2026-04-26 13:48 | 34.38071 | -118.66371 | 15641 ft | 398 kts | 345° |
| 2026-04-26 13:48 | 34.40800 | -118.66993 | 16260 ft | 399 kts | 345° |
| 2026-04-26 13:49 | 34.43537 | -118.67609 | 16812 ft | 402 kts | 346° |
| 2026-04-26 13:49 | 34.46320 | -118.68178 | 17270 ft | 408 kts | 346° |
| 2026-04-26 13:49 | 34.49136 | -118.68717 | 17754 ft | 412 kts | 347° |
| 2026-04-26 13:49 | 34.51985 | -118.69256 | 18256 ft | 416 kts | 347° |
| 2026-04-26 13:50 | 34.54851 | -118.69803 | 18709 ft | 418 kts | 346° |
| 2026-04-26 13:50 | 34.57734 | -118.70359 | 19176 ft | 421 kts | 346° |
| 2026-04-26 13:50 | 34.60639 | -118.70924 | 19647 ft | 424 kts | 347° |
| 2026-04-26 13:50 | 34.63564 | -118.71496 | 20085 ft | 428 kts | 347° |
| 2026-04-26 13:51 | 34.66517 | -118.72075 | 20514 ft | 431 kts | 347° |
| 2026-04-26 13:51 | 34.69487 | -118.72657 | 20952 ft | 434 kts | 347° |
| 2026-04-26 13:51 | 34.72436 | -118.73427 | 21365 ft | 433 kts | 337° |
| 2026-04-26 13:51 | 34.75088 | -118.75094 | 21790 ft | 430 kts | 326° |
| 2026-04-26 13:52 | 34.77666 | -118.76954 | 22254 ft | 432 kts | 326° |
| 2026-04-26 13:52 | 34.80276 | -118.78800 | 22637 ft | 436 kts | 327° |
| 2026-04-26 13:52 | 34.82916 | -118.80642 | 23029 ft | 439 kts | 327° |
| 2026-04-26 13:52 | 34.85578 | -118.82483 | 23435 ft | 442 kts | 327° |
| 2026-04-26 13:53 | 34.88262 | -118.84331 | 23781 ft | 444 kts | 327° |
| 2026-04-26 13:53 | 34.90957 | -118.86183 | 24141 ft | 446 kts | 327° |
| 2026-04-26 13:53 | 34.93664 | -118.88043 | 24506 ft | 447 kts | 327° |
| 2026-04-26 13:53 | 34.96381 | -118.89911 | 24866 ft | 449 kts | 327° |
| 2026-04-26 13:54 | 34.99107 | -118.91788 | 25208 ft | 451 kts | 327° |
| 2026-04-26 13:54 | 35.00030 | -118.92424 | 25340 ft | 452 kts | 327° |
| 2026-04-26 13:55 | 35.05798 | -118.96405 | 26004 ft | 457 kts | 328° |
| 2026-04-26 13:56 | 35.08574 | -118.98323 | 26331 ft | 458 kts | 327° |
| 2026-04-26 13:56 | 35.11355 | -119.00246 | 26654 ft | 460 kts | 327° |
| 2026-04-26 13:56 | 35.14143 | -119.02176 | 27064 ft | 460 kts | 327° |
| 2026-04-26 13:56 | 35.16919 | -119.04098 | 27587 ft | 457 kts | 327° |
| 2026-04-26 13:57 | 35.19680 | -119.06011 | 28133 ft | 455 kts | 328° |
| 2026-04-26 13:57 | 35.22423 | -119.07914 | 28665 ft | 452 kts | 328° |
| 2026-04-26 13:57 | 35.25153 | -119.09809 | 29187 ft | 450 kts | 328° |
| 2026-04-26 13:57 | 35.27634 | -119.11533 | 29615 ft | 449 kts | 328° |
| 2026-04-26 13:59 | 35.27866 | -119.11694 | 29656 ft | 449 kts | 328° |
| 2026-04-26 13:59 | 35.29092 | -119.12548 | 29867 ft | 449 kts | 328° |